createdAt,value
2017-12-12T00:00:09.746Z,1.30
2017-12-12T00:02:37.084Z,1.30
2017-12-12T00:05:04.358Z,1.20
2017-12-12T00:07:31.601Z,1.27
2017-12-12T00:09:58.855Z,1.07
2017-12-12T00:12:26.202Z,1.33
2017-12-12T00:14:53.441Z,1.10
2017-12-12T00:17:20.705Z,1.27
2017-12-12T00:19:47.957Z,0.90
2017-12-12T00:22:15.313Z,1.20
2017-12-12T00:24:42.566Z,1.23
2017-12-12T00:27:09.838Z,1.10
2017-12-12T00:29:37.176Z,1.03
2017-12-12T00:32:04.449Z,1.17
2017-12-12T00:34:31.692Z,0.90
2017-12-12T00:36:58.956Z,0.80
2017-12-12T00:39:26.198Z,1.00
2017-12-12T00:41:53.478Z,0.90
2017-12-12T00:44:20.725Z,0.80
2017-12-12T00:46:47.980Z,0.90
2017-12-12T00:49:15.238Z,0.90
2017-12-12T00:51:42.484Z,1.03
2017-12-12T00:54:09.752Z,1.23
2017-12-12T00:56:37.001Z,1.03
2017-12-12T00:59:04.269Z,1.07
2017-12-12T01:01:31.517Z,1.20
2017-12-12T01:03:58.790Z,0.67
2017-12-12T01:06:26.037Z,0.83
2017-12-12T01:08:53.310Z,0.90
2017-12-12T01:11:20.595Z,1.10
2017-12-12T01:13:47.849Z,1.10
2017-12-12T01:16:15.093Z,0.87
2017-12-12T01:18:42.365Z,1.20
2017-12-12T01:21:09.609Z,1.30
2017-12-12T01:23:36.857Z,0.93
2017-12-12T01:26:04.133Z,1.00
2017-12-12T01:28:31.380Z,1.03
2017-12-12T01:30:58.718Z,1.10
2017-12-12T01:33:25.966Z,1.10
2017-12-12T01:35:53.231Z,1.00
2017-12-12T01:38:20.489Z,1.10
2017-12-12T01:40:47.828Z,1.00
2017-12-12T01:43:15.080Z,1.07
2017-12-12T01:45:42.351Z,1.10
2017-12-12T01:48:09.599Z,1.00
2017-12-12T01:50:36.867Z,1.17
2017-12-12T01:53:04.109Z,1.10
2017-12-12T01:55:31.374Z,1.23
2017-12-12T01:57:58.619Z,0.90
2017-12-12T02:00:25.894Z,1.10
2017-12-12T02:02:53.148Z,1.20
2017-12-12T02:05:20.390Z,1.33
2017-12-12T02:07:47.656Z,1.10
2017-12-12T02:10:14.972Z,1.50
2017-12-12T02:12:42.237Z,1.53
2017-12-12T02:15:09.580Z,1.37
2017-12-12T02:17:36.844Z,1.70
2017-12-12T02:20:04.093Z,1.53
2017-12-12T02:22:31.362Z,1.70
2017-12-12T02:24:58.608Z,1.73
2017-12-12T02:27:25.949Z,2.27
2017-12-12T02:29:53.204Z,1.70
2017-12-12T02:32:20.469Z,2.10
2017-12-12T02:34:47.813Z,1.97
2017-12-12T02:37:15.087Z,2.30
2017-12-12T02:39:42.334Z,2.37
2017-12-12T02:42:09.591Z,2.50
2017-12-12T02:44:36.845Z,3.30
2017-12-12T02:47:04.095Z,3.13
2017-12-12T02:49:31.360Z,3.07
2017-12-12T02:51:58.614Z,2.50
2017-12-12T02:54:25.884Z,2.70
2017-12-12T02:56:53.125Z,2.37
2017-12-12T02:59:20.392Z,2.83
2017-12-12T03:01:47.640Z,3.10
2017-12-12T03:04:14.911Z,3.53
2017-12-12T03:06:42.205Z,3.17
2017-12-12T03:09:09.468Z,3.30
2017-12-12T03:11:36.713Z,3.87
2017-12-12T03:14:03.977Z,3.50
2017-12-12T03:16:31.226Z,2.90
2017-12-12T03:18:58.484Z,3.23
2017-12-12T03:21:25.736Z,3.10
2017-12-12T03:23:53.014Z,3.47
2017-12-12T03:26:20.259Z,3.17
2017-12-12T03:28:47.500Z,2.63
2017-12-12T03:31:14.764Z,3.20
2017-12-12T03:33:42.008Z,3.23
2017-12-12T03:36:09.277Z,3.20
2017-12-12T03:38:36.524Z,3.10
2017-12-12T03:41:03.788Z,2.63
2017-12-12T03:43:31.118Z,3.37
2017-12-12T03:45:58.376Z,2.53
2017-12-12T03:48:25.624Z,3.97
2017-12-12T03:50:52.892Z,3.20
2017-12-12T03:53:20.140Z,3.33
2017-12-12T03:55:47.475Z,3.50
2017-12-12T03:58:14.733Z,3.60
2017-12-12T04:00:42.093Z,3.63
2017-12-12T04:03:09.336Z,3.83
2017-12-12T04:05:36.604Z,3.90
2017-12-12T04:08:03.845Z,3.90
2017-12-12T04:10:31.130Z,4.00
2017-12-12T04:12:58.373Z,3.63
2017-12-12T04:15:25.713Z,3.30
2017-12-12T04:17:53.065Z,3.40
2017-12-12T04:20:20.315Z,3.97
2017-12-12T04:22:47.577Z,4.30
2017-12-12T04:25:14.830Z,4.03
2017-12-12T04:27:42.097Z,3.77
2017-12-12T04:30:09.333Z,3.97
2017-12-12T04:32:36.693Z,3.80
2017-12-12T04:35:03.937Z,3.93
2017-12-12T04:37:31.211Z,4.23
2017-12-12T04:39:58.452Z,4.47
2017-12-12T04:42:25.716Z,4.83
2017-12-12T04:44:52.960Z,3.80
2017-12-12T04:47:20.224Z,4.13
2017-12-12T04:49:47.472Z,3.50
2017-12-12T04:52:14.743Z,4.07
2017-12-12T04:54:42.068Z,4.17
2017-12-12T04:57:09.336Z,4.03
2017-12-12T04:59:36.587Z,4.60
2017-12-12T05:02:03.857Z,4.27
2017-12-12T05:04:31.103Z,3.80
2017-12-12T05:06:58.437Z,4.17
2017-12-12T05:09:25.700Z,3.70
2017-12-12T05:11:52.961Z,3.70
2017-12-12T05:14:20.232Z,3.53
2017-12-12T05:16:47.472Z,3.50
2017-12-12T05:19:14.737Z,3.40
2017-12-12T05:21:42.058Z,3.60
2017-12-12T05:24:09.420Z,3.60
2017-12-12T05:26:36.772Z,3.77
2017-12-12T05:29:04.044Z,4.17
2017-12-12T05:31:31.382Z,3.87
2017-12-12T05:33:58.625Z,3.63
2017-12-12T05:36:25.989Z,3.00
2017-12-12T05:38:53.236Z,3.60
2017-12-12T05:41:20.500Z,4.00
2017-12-12T05:43:47.753Z,3.60
2017-12-12T05:46:15.020Z,3.70
2017-12-12T05:48:42.273Z,3.60
2017-12-12T05:51:09.543Z,4.17
2017-12-12T05:53:36.868Z,4.20
2017-12-12T05:56:04.128Z,4.60
2017-12-12T05:58:31.379Z,3.83
2017-12-12T06:00:58.649Z,4.00
2017-12-12T06:03:25.903Z,4.70
2017-12-12T06:05:53.177Z,4.40
2017-12-12T06:08:20.488Z,3.70
2017-12-12T06:10:47.733Z,3.60
2017-12-12T06:13:15.003Z,3.93
2017-12-12T06:15:42.267Z,4.10
2017-12-12T06:18:09.525Z,4.50
2017-12-12T06:20:36.773Z,3.97
2017-12-12T06:23:04.042Z,4.30
2017-12-12T06:25:31.297Z,4.03
2017-12-12T06:27:58.570Z,4.10
2017-12-12T06:30:25.816Z,3.40
2017-12-12T06:32:53.127Z,4.00
2017-12-12T06:35:20.397Z,3.80
2017-12-12T06:37:47.645Z,4.40
2017-12-12T06:40:14.927Z,3.80
2017-12-12T06:42:42.241Z,3.43
2017-12-12T06:45:09.489Z,3.70
2017-12-12T06:47:36.758Z,4.10
2017-12-12T06:50:04.005Z,3.90
2017-12-12T06:52:31.282Z,3.80
2017-12-12T06:54:58.553Z,3.90
2017-12-12T06:57:25.820Z,4.17
2017-12-12T06:59:53.092Z,4.40
2017-12-12T07:02:20.340Z,3.97
2017-12-12T07:04:47.612Z,4.07
2017-12-12T07:07:14.888Z,4.07
2017-12-12T07:09:42.156Z,3.87
2017-12-12T07:12:09.426Z,3.67
2017-12-12T07:14:36.709Z,3.50
2017-12-12T07:17:03.953Z,3.70
2017-12-12T07:19:31.232Z,3.63
2017-12-12T07:21:58.492Z,3.67
2017-12-12T07:24:25.732Z,3.90
2017-12-12T07:26:53.004Z,4.17
2017-12-12T07:29:20.252Z,4.10
2017-12-12T07:31:47.623Z,4.60
2017-12-12T07:34:14.869Z,3.80
2017-12-12T07:36:42.124Z,3.80
2017-12-12T07:39:09.388Z,4.30
2017-12-12T07:41:36.645Z,4.70
2017-12-12T07:44:03.941Z,4.33
2017-12-12T07:46:31.240Z,3.97
2017-12-12T07:48:58.484Z,4.30
2017-12-12T07:51:25.756Z,4.13
2017-12-12T07:53:53.003Z,5.07
2017-12-12T07:56:20.349Z,4.20
2017-12-12T07:58:47.620Z,4.03
2017-12-12T08:01:14.868Z,4.80
2017-12-12T08:03:42.140Z,4.53
2017-12-12T08:06:09.425Z,3.90
2017-12-12T08:08:36.676Z,4.10
2017-12-12T08:11:03.930Z,4.40
2017-12-12T08:13:31.238Z,5.20
2017-12-12T08:15:58.509Z,5.40
2017-12-12T08:18:25.757Z,4.03
2017-12-12T08:20:53.045Z,4.47
2017-12-12T08:23:20.343Z,4.60
2017-12-12T08:25:47.599Z,4.63
2017-12-12T08:28:14.876Z,5.03
2017-12-12T08:30:42.205Z,4.97
2017-12-12T08:33:09.453Z,4.93
2017-12-12T08:35:36.729Z,4.70
2017-12-12T08:38:04.067Z,4.77
2017-12-12T08:40:31.328Z,4.47
2017-12-12T08:42:58.578Z,4.53
2017-12-12T08:45:25.851Z,4.73
2017-12-12T08:47:53.102Z,5.20
2017-12-12T08:50:20.344Z,4.47
2017-12-12T08:52:47.612Z,4.70
2017-12-12T08:55:14.866Z,4.40
2017-12-12T08:57:42.120Z,4.70
2017-12-12T09:00:09.372Z,4.50
2017-12-12T09:02:36.632Z,4.43
2017-12-12T09:05:03.877Z,4.67
2017-12-12T09:07:31.143Z,4.03
2017-12-12T09:09:58.393Z,4.60
2017-12-12T09:12:25.662Z,5.00
2017-12-12T09:14:52.904Z,4.33
2017-12-12T09:17:20.184Z,4.47
2017-12-12T09:19:47.461Z,4.70
2017-12-12T09:22:14.704Z,4.70
2017-12-12T09:24:41.968Z,5.10
2017-12-12T09:27:09.221Z,4.20
2017-12-12T09:29:36.489Z,4.40
2017-12-12T09:32:03.731Z,4.80
2017-12-12T09:34:31.000Z,4.37
2017-12-12T09:36:58.257Z,4.47
2017-12-12T09:39:25.521Z,3.67
2017-12-12T09:41:52.774Z,3.73
2017-12-12T09:44:20.038Z,4.20
2017-12-12T09:46:47.365Z,3.50
2017-12-12T09:49:14.628Z,3.77
2017-12-12T09:51:41.877Z,3.73
2017-12-12T09:54:09.226Z,3.20
2017-12-12T09:56:36.472Z,3.20
2017-12-12T09:59:03.728Z,4.10
2017-12-12T10:01:30.990Z,3.80
2017-12-12T10:03:58.241Z,3.30
2017-12-12T10:06:25.510Z,3.30
2017-12-12T10:08:52.853Z,3.50
2017-12-12T10:11:20.113Z,3.70
2017-12-12T10:13:47.367Z,3.40
2017-12-12T10:16:14.629Z,3.17
2017-12-12T10:18:42.064Z,4.10
2017-12-12T10:21:09.332Z,3.50
2017-12-12T10:23:36.584Z,3.00
2017-12-12T10:26:03.854Z,2.97
2017-12-12T10:28:31.097Z,3.00
2017-12-12T10:30:58.356Z,3.37
2017-12-12T10:33:25.603Z,3.17
2017-12-12T10:35:52.864Z,3.80
2017-12-12T10:38:20.112Z,3.20
2017-12-12T10:40:47.355Z,3.00
2017-12-12T10:43:14.617Z,3.20
2017-12-12T10:45:41.957Z,3.00
2017-12-12T10:48:09.217Z,3.00
2017-12-12T10:50:36.467Z,2.60
2017-12-12T10:53:03.727Z,2.80
2017-12-12T10:55:30.970Z,3.30
2017-12-12T10:57:58.233Z,2.77
2017-12-12T11:00:25.481Z,3.03
2017-12-12T11:02:52.745Z,2.53
2017-12-12T11:05:20.088Z,2.27
2017-12-12T11:07:47.353Z,2.40
2017-12-12T11:10:14.600Z,2.60
2017-12-12T11:12:41.873Z,2.53
2017-12-12T11:15:09.112Z,2.30
2017-12-12T11:17:36.380Z,2.37
2017-12-12T11:20:03.710Z,2.87
2017-12-12T11:22:30.978Z,2.50
2017-12-12T11:24:58.233Z,2.47
2017-12-12T11:27:25.503Z,2.20
2017-12-12T11:29:52.744Z,2.70
2017-12-12T11:32:19.990Z,2.57
2017-12-12T11:34:47.252Z,2.20
2017-12-12T11:37:14.496Z,2.27
2017-12-12T11:39:41.769Z,2.77
2017-12-12T11:42:09.012Z,2.30
2017-12-12T11:44:36.328Z,2.60
2017-12-12T11:47:03.574Z,2.43
2017-12-12T11:49:30.841Z,2.20
2017-12-12T11:51:58.106Z,2.57
2017-12-12T11:54:25.360Z,2.60
2017-12-12T11:56:52.608Z,2.77
2017-12-12T11:59:19.963Z,2.37
2017-12-12T12:01:47.205Z,2.30
2017-12-12T12:04:14.475Z,3.00
2017-12-12T12:06:41.717Z,2.40
2017-12-12T12:09:09.076Z,2.37
2017-12-12T12:11:36.340Z,2.23
2017-12-12T12:14:03.619Z,2.50
2017-12-12T12:16:30.945Z,2.20
2017-12-12T12:18:58.191Z,2.40
2017-12-12T12:21:25.452Z,2.60
2017-12-12T12:23:52.702Z,2.77
2017-12-12T12:26:19.973Z,2.83
2017-12-12T12:28:47.317Z,2.63
2017-12-12T12:31:14.584Z,2.60
2017-12-12T12:33:41.926Z,2.90
2017-12-12T12:36:09.279Z,2.90
2017-12-12T12:38:36.529Z,3.10
2017-12-12T12:41:03.890Z,3.27
2017-12-12T12:43:31.137Z,3.43
2017-12-12T12:45:58.402Z,3.73
2017-12-12T12:48:25.648Z,3.40
2017-12-12T12:50:52.916Z,3.30
2017-12-12T12:53:20.161Z,2.80
2017-12-12T12:55:47.405Z,4.20
2017-12-12T12:58:14.668Z,3.50
2017-12-12T13:00:41.916Z,3.50
2017-12-12T13:03:09.190Z,3.50
2017-12-12T13:05:36.520Z,3.17
2017-12-12T13:08:03.825Z,3.63
2017-12-12T13:10:31.060Z,3.50
2017-12-12T13:12:58.325Z,3.20
2017-12-12T13:15:25.625Z,3.00
2017-12-12T13:17:52.860Z,3.10
2017-12-12T13:20:20.121Z,2.80
2017-12-12T13:22:47.385Z,3.00
2017-12-12T13:25:14.642Z,2.93
2017-12-12T13:27:42.748Z,2.33
2017-12-12T13:30:10.002Z,2.50
2017-12-12T13:32:37.265Z,3.00
2017-12-12T13:35:04.518Z,2.83
2017-12-12T13:37:31.788Z,2.70
2017-12-12T13:39:59.034Z,3.30
2017-12-12T13:42:26.279Z,2.50
2017-12-12T13:44:53.751Z,2.50
2017-12-12T13:47:21.013Z,2.60
2017-12-12T13:49:48.308Z,2.97
2017-12-12T13:52:15.548Z,3.17
2017-12-12T13:54:42.812Z,2.77
2017-12-12T13:57:10.064Z,2.63
2017-12-12T13:59:37.340Z,3.97
2017-12-12T14:02:04.681Z,2.57
2017-12-12T14:04:31.950Z,2.87
2017-12-12T14:06:59.193Z,2.90
2017-12-12T14:09:26.456Z,3.47
2017-12-12T14:11:53.796Z,2.80
2017-12-12T14:14:21.060Z,2.50
2017-12-12T14:16:48.308Z,2.80
2017-12-12T14:19:15.578Z,3.20
2017-12-12T14:21:42.824Z,2.83
2017-12-12T14:24:10.101Z,3.27
2017-12-12T14:26:37.347Z,2.93
2017-12-12T14:29:04.600Z,2.90
2017-12-12T14:31:31.857Z,3.37
2017-12-12T14:33:59.108Z,3.07
2017-12-12T14:36:26.373Z,3.40
2017-12-12T14:38:53.621Z,2.83
2017-12-12T14:41:20.892Z,3.50
2017-12-12T14:43:48.149Z,3.00
2017-12-12T14:46:15.413Z,3.00
2017-12-12T14:48:42.697Z,3.07
2017-12-12T14:51:09.970Z,3.27
2017-12-12T14:53:37.213Z,3.50
2017-12-12T14:56:04.473Z,3.03
2017-12-12T14:58:31.716Z,2.90
2017-12-12T15:00:59.066Z,2.83
2017-12-12T15:03:26.315Z,2.90
2017-12-12T15:05:53.576Z,3.20
2017-12-12T15:08:20.825Z,3.67
2017-12-12T15:10:48.092Z,3.20
2017-12-12T15:13:15.340Z,3.30
2017-12-12T15:15:42.590Z,3.23
2017-12-12T15:18:09.853Z,2.90
2017-12-12T15:20:37.193Z,2.97
2017-12-12T15:23:04.465Z,3.17
2017-12-12T15:25:31.712Z,3.30
2017-12-12T15:27:59.061Z,3.07
2017-12-12T15:30:26.310Z,3.17
2017-12-12T15:32:53.579Z,3.20
2017-12-12T15:35:20.820Z,2.80
2017-12-12T15:37:48.089Z,3.30
2017-12-12T15:40:15.522Z,3.30
2017-12-12T15:42:42.810Z,3.30
2017-12-12T15:45:10.061Z,2.90
2017-12-12T15:47:37.324Z,3.20
2017-12-12T15:50:04.613Z,3.40
2017-12-12T15:52:31.896Z,3.60
2017-12-12T15:54:59.140Z,3.10
2017-12-12T15:57:26.411Z,3.40
2017-12-12T15:59:53.665Z,3.17
2017-12-12T16:02:21.013Z,3.03
2017-12-12T16:04:48.280Z,3.30
2017-12-12T16:07:15.527Z,3.60
2017-12-12T16:09:42.793Z,3.70
2017-12-12T16:12:10.045Z,3.00
2017-12-12T16:14:37.313Z,3.30
2017-12-12T16:17:04.559Z,4.10
2017-12-12T16:19:31.822Z,3.30
2017-12-12T16:21:59.068Z,3.00
2017-12-12T16:24:26.336Z,3.03
2017-12-12T16:26:53.585Z,2.63
2017-12-12T16:29:20.852Z,2.70
2017-12-12T16:31:48.101Z,2.63
2017-12-12T16:34:15.370Z,2.60
2017-12-12T16:36:42.661Z,2.77
2017-12-12T16:39:09.936Z,2.90
2017-12-12T16:41:37.189Z,2.73
2017-12-12T16:44:04.530Z,3.10
2017-12-12T16:46:31.915Z,3.00
2017-12-12T16:48:59.178Z,2.97
2017-12-12T16:51:26.446Z,3.10
2017-12-12T16:53:53.692Z,2.90
2017-12-12T16:56:20.999Z,3.10
2017-12-12T16:58:48.247Z,2.97
2017-12-12T17:01:15.513Z,2.97
2017-12-12T17:03:42.765Z,3.30
2017-12-12T17:06:10.032Z,3.00
2017-12-12T17:08:37.280Z,2.70
2017-12-12T17:11:04.540Z,3.17
2017-12-12T17:13:31.793Z,2.70
2017-12-12T17:15:59.061Z,2.77
2017-12-12T17:18:26.542Z,3.17
2017-12-12T17:20:53.793Z,2.77
2017-12-12T17:23:21.058Z,2.90
2017-12-12T17:25:48.308Z,3.43
2017-12-12T17:28:15.572Z,2.83
2017-12-12T17:30:42.820Z,3.20
2017-12-12T17:33:10.085Z,3.17
2017-12-12T17:35:37.332Z,2.70
2017-12-12T17:38:04.604Z,3.20
2017-12-12T17:40:31.852Z,3.30
2017-12-12T17:42:59.210Z,3.60
2017-12-12T17:45:26.455Z,3.97
2017-12-12T17:47:53.824Z,3.50
2017-12-12T17:50:21.068Z,3.80
2017-12-12T17:52:48.336Z,3.30
2017-12-12T17:55:15.580Z,3.97
2017-12-12T17:57:42.832Z,3.00
2017-12-12T18:00:10.098Z,3.93
2017-12-12T18:02:37.346Z,2.80
2017-12-12T18:05:04.620Z,3.70
2017-12-12T18:07:31.875Z,3.50
2017-12-12T18:09:59.142Z,2.80
2017-12-12T18:12:26.393Z,3.30
2017-12-12T18:14:53.685Z,3.30
2017-12-12T18:17:20.932Z,3.27
2017-12-12T18:19:48.196Z,3.00
2017-12-12T18:22:15.444Z,3.60
2017-12-12T18:24:42.711Z,3.23
2017-12-12T18:27:09.966Z,3.23
2017-12-12T18:29:37.225Z,3.43
2017-12-12T18:32:04.485Z,2.70
2017-12-12T18:34:31.759Z,3.30
2017-12-12T18:36:59.008Z,3.00
2017-12-12T18:39:26.253Z,3.57
2017-12-12T18:41:53.522Z,3.57
2017-12-12T18:44:20.793Z,3.77
2017-12-12T18:46:48.057Z,3.53
2017-12-12T18:49:15.297Z,3.43
2017-12-12T18:51:42.571Z,3.33
2017-12-12T18:54:09.817Z,2.77
2017-12-12T18:56:37.087Z,3.23
2017-12-12T18:59:04.369Z,3.40
2017-12-12T19:01:31.632Z,3.70
2017-12-12T19:03:58.973Z,2.80
2017-12-12T19:06:26.451Z,3.30
2017-12-12T19:08:53.749Z,4.13
2017-12-12T19:11:21.021Z,3.50
2017-12-12T19:13:48.277Z,3.43
2017-12-12T19:16:15.553Z,3.87
2017-12-12T19:18:42.801Z,3.23
2017-12-12T19:21:10.060Z,4.03
2017-12-12T19:23:37.323Z,3.10
2017-12-12T19:26:04.669Z,3.10
2017-12-12T19:28:31.933Z,3.43
2017-12-12T19:30:59.185Z,2.87
2017-12-12T19:33:26.521Z,2.90
2017-12-12T19:35:53.700Z,3.40
2017-12-12T19:38:20.965Z,2.60
2017-12-12T19:40:48.216Z,2.80
2017-12-12T19:43:15.485Z,2.77
2017-12-12T19:45:42.728Z,3.37
2017-12-12T19:48:09.997Z,3.00
2017-12-12T19:50:37.299Z,2.73
2017-12-12T19:53:04.565Z,2.60
2017-12-12T19:55:31.818Z,3.17
2017-12-12T19:57:59.161Z,3.13
2017-12-12T20:00:26.408Z,2.80
2017-12-12T20:02:53.656Z,3.13
2017-12-12T20:05:20.920Z,2.30
2017-12-12T20:07:48.173Z,2.90
2017-12-12T20:10:15.440Z,3.27
2017-12-12T20:12:42.691Z,2.60
2017-12-12T20:15:09.949Z,3.27
2017-12-12T20:17:37.201Z,3.40
2017-12-12T20:20:04.467Z,3.07
2017-12-12T20:22:31.714Z,2.80
2017-12-12T20:24:58.981Z,2.37
2017-12-12T20:27:26.243Z,2.40
2017-12-12T20:29:53.509Z,2.60
2017-12-12T20:32:20.813Z,2.50
2017-12-12T20:34:48.086Z,3.10
2017-12-12T20:37:15.337Z,2.77
2017-12-12T20:39:42.600Z,2.87
2017-12-12T20:42:09.857Z,3.27
2017-12-12T20:44:37.141Z,3.60
2017-12-12T20:47:04.381Z,3.17
2017-12-12T20:49:31.633Z,2.90
2017-12-12T20:51:58.897Z,2.77
2017-12-12T20:54:26.145Z,2.80
2017-12-12T20:56:53.411Z,3.20
2017-12-12T20:59:20.666Z,2.70
2017-12-12T21:01:47.925Z,2.67
2017-12-12T21:04:15.172Z,2.43
2017-12-12T21:06:42.437Z,2.20
2017-12-12T21:09:09.689Z,2.53
2017-12-12T21:11:37.008Z,2.47
2017-12-12T21:14:04.341Z,2.37
2017-12-12T21:16:31.605Z,2.80
2017-12-12T21:18:58.948Z,3.13
2017-12-12T21:21:26.192Z,2.57
2017-12-12T21:23:53.436Z,2.80
2017-12-12T21:26:20.696Z,3.00
2017-12-12T21:28:47.973Z,2.73
2017-12-12T21:31:15.208Z,2.43
2017-12-12T21:33:42.484Z,2.67
2017-12-12T21:36:09.737Z,2.40
2017-12-12T21:38:37.001Z,2.70
2017-12-12T21:41:04.252Z,2.83
2017-12-12T21:43:31.516Z,2.80
2017-12-12T21:45:58.760Z,2.10
2017-12-12T21:48:26.030Z,3.47
2017-12-12T21:50:53.285Z,2.70
2017-12-12T21:53:20.574Z,2.53
2017-12-12T21:55:47.801Z,3.20
2017-12-12T21:58:15.053Z,3.07
2017-12-12T22:00:42.315Z,3.10
2017-12-12T22:03:09.620Z,3.00
2017-12-12T22:05:36.888Z,3.70
2017-12-12T22:08:04.204Z,3.83
2017-12-12T22:10:31.465Z,3.83
2017-12-12T22:12:58.708Z,4.17
2017-12-12T22:15:26.060Z,4.83
2017-12-12T22:17:53.308Z,4.60
2017-12-12T22:20:20.674Z,5.00
2017-12-12T22:22:47.925Z,5.23
2017-12-12T22:25:15.206Z,4.40
2017-12-12T22:27:42.457Z,4.20
2017-12-12T22:30:09.735Z,4.33
2017-12-12T22:32:37.050Z,3.93
2017-12-12T22:35:04.847Z,3.77
2017-12-12T22:37:32.309Z,4.20
2017-12-12T22:39:59.967Z,4.80
2017-12-12T22:42:27.342Z,4.63
2017-12-12T22:44:54.721Z,4.37
2017-12-12T22:47:21.980Z,3.83
2017-12-12T22:49:49.238Z,3.80
2017-12-12T22:52:16.500Z,4.40
2017-12-12T22:54:43.753Z,4.20
2017-12-12T22:57:11.021Z,4.70
2017-12-12T22:59:38.369Z,4.47
2017-12-12T23:02:05.716Z,4.60
2017-12-12T23:04:32.973Z,4.43
2017-12-12T23:07:00.244Z,4.40
2017-12-12T23:09:27.485Z,5.13
2017-12-12T23:11:54.744Z,5.43
2017-12-12T23:14:22.005Z,4.73
2017-12-12T23:16:49.263Z,4.80
2017-12-12T23:19:16.522Z,5.00
2017-12-12T23:21:43.767Z,5.60
2017-12-12T23:24:11.034Z,5.20
2017-12-12T23:26:38.301Z,6.20
2017-12-12T23:29:05.616Z,5.67
2017-12-12T23:31:32.865Z,5.90
2017-12-12T23:34:00.136Z,6.30
2017-12-12T23:36:27.384Z,7.00
2017-12-12T23:38:54.633Z,6.43
2017-12-12T23:41:21.897Z,6.70
2017-12-12T23:43:49.148Z,6.53
2017-12-12T23:46:16.428Z,6.13
2017-12-12T23:48:43.677Z,6.20
2017-12-12T23:51:10.940Z,6.70
2017-12-12T23:53:38.195Z,6.73
2017-12-12T23:56:05.465Z,6.33
2017-12-12T23:58:32.716Z,6.33
